AirNav   ATP
 
 1570 users online  

T48 Phillips Flying Ranch Airport
Rockwall, Texas, USA

GOING TO ROCKWALL?


FAA INFORMATION EFFECTIVE 01 FEBRUARY 2018

Location

FAA Identifier: T48
Lat/Long: 32-52-05.2400N / 096-13-08.9100W
32-52.087333N / 096-13.148500W
32.8681222 / -96.2191417
(estimated)
Elevation: 500 ft. / 152 m (estimated)
Variation: 06E (1985)
From city: 15 miles SE of ROCKWALL, TX
Time zone: UTC -6 (UTC -5 during Daylight Saving Time)
Zip code: 75160

Airport Operations

Airport use: Open to the public
Activation date: 11/1976
Control tower: no
ARTCC: FORT WORTH CENTER
FSS: FORT WORTH FLIGHT SERVICE STATION
NOTAMs facility: FTW (NOTAM-D service available)
Attendance: UNATNDD
FOR ARPT ATTENDANT CALL 214-704-1593
Wind indicator: yes
Segmented circle: no

Airport Communications

CTAF/UNICOM: 123.0
WX ASOS at TRL (10 nm S): 119.275 (972-551-1334)
WX AWOS-3 at F46 (12 nm W): 121.25 (972-772-6699)
WX AWOS-3 at GVT (14 nm NE): 133.425 (903-455-7703)
WX AWOS-3 at HQZ (17 nm SW): 118.175 (972-222-7631)

Nearby radio navigation aids

VOR radial/distance  VOR name  Freq  Var
CVEr086/34.5COWBOY VOR/DME116.2006E
SLRr232/39.4SULPHUR SPRINGS VOR/DME109.0008E

 
NDB name  Hdg/Dist  Freq  Var  ID
TRAVIS007/6.726006EAVZ .- ...- --..
CADDO MILLS166/10.431606EMII -- .. ..
MESQUITE074/16.024803EPQF .--. --.- ..-.
MELISA139/30.142103EVLY ...- .-.. -.--

Airport Services

Parking: hangars and tiedowns
Bottled oxygen: NONE
Bulk oxygen: NONE

Runway Information

Runway 13/31

Dimensions: 3344 x 50 ft. / 1019 x 15 m
Surface: turf, in good condition
RUNWAY 13  RUNWAY 31
Traffic pattern: leftleft
Displaced threshold: 335 ft.336 ft.
Obstructions: 43 ft. trees, 190 ft. from runway, 110 ft. right of centerline, 4:1 slope to clear
APCH RATIO 5:1 TO DSPLCD THLD; 13 FT BLDG 67 FT 102 FT LEFT.
4 ft. fence, 125 ft. from runway, 31:1 slope to clear
APCH SLOPE 29:1; TREE 16 FT 151 FT LEFT.

Airport Ownership and Management from official FAA records

Ownership: Privately-owned
Owner: SUE PHILLIPS
10053 CO. ROAD 2322
TERRELL, TX 75160
Phone 972-563-3765
Manager: MIKE JAFFE
10053 CO. ROAD 2322
TERRELL, TX 75160
Phone 214-704-1593

Airport Operational Statistics

Aircraft based on the field: 5
Single engine airplanes: 5
    
Aircraft operations: avg 21/week *
55% transient general aviation
45% local general aviation
* for 12-month period ending 31 December 2015

Additional Remarks

WILDLIFE ON AND INVOF RY.

Instrument Procedures

There are no published instrument procedures at T48.

Some nearby airports with instrument procedures:

KTRL - Terrell Municipal Airport (10 nm S)
7F3 - Caddo Mills Municipal Airport (10 nm N)
F46 - Ralph M Hall/Rockwall Municipal Airport (12 nm W)
KGVT - Majors Airport (14 nm NE)
KHQZ - Mesquite Metro Airport (17 nm SW)
 
Loc | Ops | Rwys | IFR | FBO | Links
Com | Nav | Svcs | Stats | Notes

Lake Texoma Jet Center
AirBoss

 
Area around T48 (Phillips Flying Ranch Airport)
 
Road maps at: MapQuest Bing Google
 
Aerial photo
WARNING: Photo may not be current or correct
Aerial photo of T48 (Phillips Flying Ranch Airport)
Do you have a better or more recent aerial photo of Phillips Flying Ranch Airport that you would like to share? If so, please send us your photo.

 
Sectional chart

 
Airport distance calculator
Flying to Phillips Flying Ranch Airport? Find the distance to fly.

From to T48

Sunrise and sunset
Times for 21-Feb-2018
 Local
(UTC-6)
 Zulu
(UTC)
Morning civil twilight06:3812:38
Sunrise07:0313:03
Sunset18:1400:14
Evening civil twilight18:3900:39

Current date and time
Zulu (UTC)  21-Feb-2018 19:30:04
Local (UTC-6)  21-Feb-2018 13:30:04
 
METAR
KTRL 
9nm S 
211905Z AUTO 33012G18KT 5SM -RA BR OVC007 04/02 A3023 RMK AO2 P0001 T00390022
KF46 
12nm W 
211915Z AUTO 34011G19KT 7SM -RA OVC005 02/02 A3025 RMK AO2 LTG DSNT SE T00200020
KGVT 
14nm NE 
211910Z AUTO 33012KT 3SM RA OVC006 05/05 A3025 RMK AO2 P0002 LTG DSNT SE AND W
KHQZ 
17nm SW 
211850Z 32012G18KT 7SM OVC008 02/02 A3026
TAF
KDAL 
32nm W 
211737Z 2118/2218 36018KT 6SM RA BR VCTS OVC007CB TEMPO 2119/2123 4SM -TSRA OVC007CB FM212300 35012KT 5SM BR VCSH OVC008 FM220300 34011KT P6SM OVC008 FM221600 35010KT 4SM BR VCSH OVC008
NOTAMs
Click for the latest NOTAMs
NOTAMs are issued by the DoD/FAA and will open in a separate window not controlled by AirNav.

 

 
 

Would you like to see your business listed on this page?

 If your business provides an interesting product or service to pilots, flight crews, aircraft, or users of the Phillips Flying Ranch Airport, you should consider listing it here.  To start the listing process, click on the button below
 
Add a business
 

Other Pages about Phillips Flying Ranch Airport

www.efc.dcccd.edu/...
 
Update a link
 
Copyright © AirNav, LLC. All rights reserved. Privacy Policy  Contact